Maldives Meteorological Service

METAR

Station
VRMM
METAR VRMM 280700Z 30004KT 9999 FEW018 BKN280 31/25 Q1010 NOSIG=
VRMH
METAR VRMH 280700Z 30005KT 9999 FEW018 BKN270 31/26 Q1010=
VRMK
METAR VRMK 280700Z 16004KT 9999 FEW018 BKN270 30/25 Q1011=
VRMT
METAR VRMT 280700Z VRB01KT 9999 SCT018TCU BKN260 30/26 Q1011=
VRMG
METAR VRMG 280700Z 21006KT 9999 FEW017 FEW018CB BKN260 31/25 Q1011 CB N NOSIG=
Last Updated : 2020-09-28 12:01:02

SPECI

Station
VRMM
VRMH
VRMK
VRMT
VRMG
Last Updated : 2020-09-28 12:01:02